sensor_id;sensor_type;location;lat;lon;timestamp;pressure;altitude;pressure_sealevel;temperature;humidity
38054;BME280;23859;50.672;7.164;2022-08-19T00:00:13;100431.66;;;19.60;82.35
38054;BME280;23859;50.672;7.164;2022-08-19T00:02:40;100428.13;;;19.59;82.53
38054;BME280;23859;50.672;7.164;2022-08-19T00:05:08;100438.88;;;19.53;82.95
38054;BME280;23859;50.672;7.164;2022-08-19T00:07:34;100440.31;;;19.49;83.76
38054;BME280;23859;50.672;7.164;2022-08-19T00:10:00;100444.03;;;19.48;83.52
38054;BME280;23859;50.672;7.164;2022-08-19T00:12:27;100453.34;;;19.45;83.85
38054;BME280;23859;50.672;7.164;2022-08-19T00:14:53;100451.22;;;19.41;84.38
38054;BME280;23859;50.672;7.164;2022-08-19T00:22:32;100472.94;;;19.33;84.96
38054;BME280;23859;50.672;7.164;2022-08-19T00:24:58;100467.72;;;19.32;84.83
38054;BME280;23859;50.672;7.164;2022-08-19T00:27:24;100478.47;;;19.25;84.86
38054;BME280;23859;50.672;7.164;2022-08-19T00:29:50;100463.28;;;19.18;85.44
38054;BME280;23859;50.672;7.164;2022-08-19T00:32:16;100471.94;;;19.13;85.87
38054;BME280;23859;50.672;7.164;2022-08-19T00:34:42;100474.09;;;19.03;86.51
38054;BME280;23859;50.672;7.164;2022-08-19T00:37:09;100486.28;;;18.99;86.56
38054;BME280;23859;50.672;7.164;2022-08-19T00:39:36;100479.28;;;19.05;86.89
38054;BME280;23859;50.672;7.164;2022-08-19T00:42:02;100472.69;;;19.07;86.83
38054;BME280;23859;50.672;7.164;2022-08-19T00:44:29;100476.91;;;19.10;86.32
38054;BME280;23859;50.672;7.164;2022-08-19T00:46:57;100476.09;;;19.16;86.28
38054;BME280;23859;50.672;7.164;2022-08-19T00:49:47;100480.13;;;19.26;85.85
38054;BME280;23859;50.672;7.164;2022-08-19T00:52:35;100472.81;;;19.20;86.19
38054;BME280;23859;50.672;7.164;2022-08-19T00:55:04;100465.97;;;19.18;86.43
38054;BME280;23859;50.672;7.164;2022-08-19T00:57:36;100467.59;;;19.12;86.69
38054;BME280;23859;50.672;7.164;2022-08-19T01:00:11;100468.63;;;19.11;86.99
38054;BME280;23859;50.672;7.164;2022-08-19T01:02:39;100470.66;;;19.09;87.04
38054;BME280;23859;50.672;7.164;2022-08-19T01:05:09;100471.41;;;19.03;87.42
38054;BME280;23859;50.672;7.164;2022-08-19T01:07:38;100468.84;;;18.95;88.14
38054;BME280;23859;50.672;7.164;2022-08-19T01:10:08;100462.25;;;18.98;87.80
38054;BME280;23859;50.672;7.164;2022-08-19T01:12:35;100454.34;;;18.96;87.77
38054;BME280;23859;50.672;7.164;2022-08-19T01:15:02;100444.16;;;18.92;87.67
38054;BME280;23859;50.672;7.164;2022-08-19T01:17:29;100448.06;;;18.89;88.05
38054;BME280;23859;50.672;7.164;2022-08-19T01:19:55;100437.66;;;18.86;88.48
38054;BME280;23859;50.672;7.164;2022-08-19T01:24:51;100444.47;;;18.82;88.99
38054;BME280;23859;50.672;7.164;2022-08-19T01:27:17;100446.09;;;18.77;88.60
38054;BME280;23859;50.672;7.164;2022-08-19T01:29:45;100449.59;;;18.77;88.90
38054;BME280;23859;50.672;7.164;2022-08-19T01:32:13;100443.56;;;18.75;88.64
38054;BME280;23859;50.672;7.164;2022-08-19T01:34:40;100455.38;;;18.74;89.46
38054;BME280;23859;50.672;7.164;2022-08-19T01:37:09;100458.66;;;18.70;89.82
38054;BME280;23859;50.672;7.164;2022-08-19T01:39:38;100458.19;;;18.67;89.71
38054;BME280;23859;50.672;7.164;2022-08-19T01:42:05;100460.31;;;18.71;89.37
38054;BME280;23859;50.672;7.164;2022-08-19T01:44:33;100454.94;;;18.71;89.10
38054;BME280;23859;50.672;7.164;2022-08-19T01:46:59;100462.41;;;18.75;89.76
38054;BME280;23859;50.672;7.164;2022-08-19T01:49:25;100461.03;;;18.79;89.22
38054;BME280;23859;50.672;7.164;2022-08-19T01:51:53;100463.31;;;18.82;89.33
38054;BME280;23859;50.672;7.164;2022-08-19T01:54:21;100460.63;;;18.82;89.37
38054;BME280;23859;50.672;7.164;2022-08-19T01:56:47;100451.53;;;18.83;88.58
38054;BME280;23859;50.672;7.164;2022-08-19T01:59:18;100454.59;;;18.80;88.82
38054;BME280;23859;50.672;7.164;2022-08-19T02:01:45;100446.34;;;18.82;88.56
38054;BME280;23859;50.672;7.164;2022-08-19T02:04:11;100435.47;;;18.75;88.24
38054;BME280;23859;50.672;7.164;2022-08-19T02:06:37;100448.38;;;18.80;88.23
38054;BME280;23859;50.672;7.164;2022-08-19T02:09:08;100451.22;;;18.72;88.60
38054;BME280;23859;50.672;7.164;2022-08-19T02:11:36;100451.13;;;18.66;89.50
38054;BME280;23859;50.672;7.164;2022-08-19T02:14:05;100451.59;;;18.69;89.79
38054;BME280;23859;50.672;7.164;2022-08-19T02:16:32;100444.72;;;18.67;89.50
38054;BME280;23859;50.672;7.164;2022-08-19T02:18:59;100452.34;;;18.63;89.90
38054;BME280;23859;50.672;7.164;2022-08-19T02:21:28;100451.06;;;18.59;90.09
38054;BME280;23859;50.672;7.164;2022-08-19T02:23:55;100449.97;;;18.54;90.45
38054;BME280;23859;50.672;7.164;2022-08-19T02:26:21;100451.47;;;18.56;90.87
38054;BME280;23859;50.672;7.164;2022-08-19T02:28:48;100450.63;;;18.56;90.60
38054;BME280;23859;50.672;7.164;2022-08-19T02:31:18;100449.59;;;18.57;90.55
38054;BME280;23859;50.672;7.164;2022-08-19T02:33:46;100452.84;;;18.52;90.68
38054;BME280;23859;50.672;7.164;2022-08-19T02:36:14;100463.41;;;18.54;90.53
38054;BME280;23859;50.672;7.164;2022-08-19T02:38:40;100455.09;;;18.49;90.79
38054;BME280;23859;50.672;7.164;2022-08-19T02:41:15;100461.25;;;18.43;91.16
38054;BME280;23859;50.672;7.164;2022-08-19T02:43:42;100464.97;;;18.42;91.16
38054;BME280;23859;50.672;7.164;2022-08-19T02:46:20;100460.13;;;18.37;92.12
38054;BME280;23859;50.672;7.164;2022-08-19T02:48:51;100460.69;;;18.33;92.11
38054;BME280;23859;50.672;7.164;2022-08-19T02:51:23;100467.38;;;18.37;92.69
38054;BME280;23859;50.672;7.164;2022-08-19T02:53:50;100469.63;;;18.33;92.23
38054;BME280;23859;50.672;7.164;2022-08-19T02:56:16;100469.63;;;18.33;92.24
38054;BME280;23859;50.672;7.164;2022-08-19T02:58:43;100401.84;;;17.95;92.20
38054;BME280;23859;50.672;7.164;2022-08-19T03:01:10;100458.00;;;18.33;92.46
38054;BME280;23859;50.672;7.164;2022-08-19T03:03:37;100460.69;;;18.33;93.16
38054;BME280;23859;50.672;7.164;2022-08-19T03:06:09;100458.66;;;18.35;92.80
38054;BME280;23859;50.672;7.164;2022-08-19T03:08:36;100464.44;;;18.32;93.02
38054;BME280;23859;50.672;7.164;2022-08-19T03:11:03;100468.75;;;18.33;93.17
38054;BME280;23859;50.672;7.164;2022-08-19T03:13:30;100467.38;;;18.37;92.56
38054;BME280;23859;50.672;7.164;2022-08-19T03:15:56;100460.41;;;18.42;92.52
38054;BME280;23859;50.672;7.164;2022-08-19T03:18:22;100456.69;;;18.43;92.68
38054;BME280;23859;50.672;7.164;2022-08-19T03:20:50;100458.16;;;18.46;91.85
38054;BME280;23859;50.672;7.164;2022-08-19T03:23:18;100457.06;;;18.40;92.07
38054;BME280;23859;50.672;7.164;2022-08-19T03:25:47;100465.25;;;18.32;92.85
38054;BME280;23859;50.672;7.164;2022-08-19T03:28:14;100468.03;;;18.24;93.46
38054;BME280;23859;50.672;7.164;2022-08-19T03:30:42;100469.25;;;18.22;93.50
38054;BME280;23859;50.672;7.164;2022-08-19T03:33:10;100479.38;;;18.20;93.78
38054;BME280;23859;50.672;7.164;2022-08-19T03:35:37;100477.22;;;18.30;93.18
38054;BME280;23859;50.672;7.164;2022-08-19T03:38:04;100476.22;;;18.31;92.87
38054;BME280;23859;50.672;7.164;2022-08-19T03:40:31;100474.53;;;18.30;92.50
38054;BME280;23859;50.672;7.164;2022-08-19T03:42:57;100466.47;;;18.30;93.25
38054;BME280;23859;50.672;7.164;2022-08-19T03:45:24;100456.00;;;18.20;93.03
38054;BME280;23859;50.672;7.164;2022-08-19T03:47:50;100463.06;;;18.21;93.50
38054;BME280;23859;50.672;7.164;2022-08-19T03:50:17;100467.31;;;18.16;93.29
38054;BME280;23859;50.672;7.164;2022-08-19T03:52:51;100468.22;;;18.08;94.04
38054;BME280;23859;50.672;7.164;2022-08-19T03:55:18;100467.13;;;18.03;94.29
38054;BME280;23859;50.672;7.164;2022-08-19T03:57:44;100474.38;;;18.02;94.24
38054;BME280;23859;50.672;7.164;2022-08-19T04:00:12;100483.94;;;18.05;94.32
38054;BME280;23859;50.672;7.164;2022-08-19T04:02:38;100311.94;;;16.96;93.93
38054;BME280;23859;50.672;7.164;2022-08-19T04:05:05;100481.50;;;18.10;94.67
38054;BME280;23859;50.672;7.164;2022-08-19T04:07:31;100485.56;;;18.06;94.21
38054;BME280;23859;50.672;7.164;2022-08-19T04:09:57;100486.34;;;18.00;94.80
38054;BME280;23859;50.672;7.164;2022-08-19T04:12:23;100497.09;;;18.00;95.17
38054;BME280;23859;50.672;7.164;2022-08-19T04:14:49;100489.31;;;18.05;95.18
38054;BME280;23859;50.672;7.164;2022-08-19T04:17:15;100492.16;;;18.03;95.01
38054;BME280;23859;50.672;7.164;2022-08-19T04:19:41;100493.75;;;17.98;95.20
38054;BME280;23859;50.672;7.164;2022-08-19T04:22:09;100487.09;;;17.94;95.19
38054;BME280;23859;50.672;7.164;2022-08-19T04:24:37;100484.13;;;17.89;95.68
38054;BME280;23859;50.672;7.164;2022-08-19T04:27:03;100482.44;;;17.88;95.76
38054;BME280;23859;50.672;7.164;2022-08-19T04:29:31;100479.28;;;17.99;95.60
38054;BME280;23859;50.672;7.164;2022-08-19T04:31:58;100482.63;;;18.30;93.67
38054;BME280;23859;50.672;7.164;2022-08-19T04:34:26;100483.53;;;18.37;93.29
38054;BME280;23859;50.672;7.164;2022-08-19T04:36:55;100486.78;;;18.18;93.68
38054;BME280;23859;50.672;7.164;2022-08-19T04:39:24;100496.72;;;18.03;94.89
38054;BME280;23859;50.672;7.164;2022-08-19T04:42:11;100496.16;;;17.93;95.38
38054;BME280;23859;50.672;7.164;2022-08-19T04:44:57;100505.31;;;17.84;95.87
38054;BME280;23859;50.672;7.164;2022-08-19T04:47:24;100498.66;;;17.80;95.97
38054;BME280;23859;50.672;7.164;2022-08-19T04:49:50;100500.88;;;17.77;96.46
38054;BME280;23859;50.672;7.164;2022-08-19T04:52:16;100506.38;;;17.83;96.70
38054;BME280;23859;50.672;7.164;2022-08-19T04:54:42;100508.69;;;17.86;96.39
38054;BME280;23859;50.672;7.164;2022-08-19T04:57:09;100506.06;;;17.93;96.85
38054;BME280;23859;50.672;7.164;2022-08-19T04:59:36;100512.03;;;18.02;96.04
38054;BME280;23859;50.672;7.164;2022-08-19T05:02:03;100515.63;;;18.09;96.24
38054;BME280;23859;50.672;7.164;2022-08-19T05:04:29;100514.25;;;18.13;96.04
38054;BME280;23859;50.672;7.164;2022-08-19T05:06:59;100512.69;;;18.19;95.29
38054;BME280;23859;50.672;7.164;2022-08-19T05:09:26;100513.34;;;18.21;95.21
38054;BME280;23859;50.672;7.164;2022-08-19T05:11:52;100516.03;;;18.21;94.98
38054;BME280;23859;50.672;7.164;2022-08-19T05:14:19;100519.94;;;18.18;94.99
38054;BME280;23859;50.672;7.164;2022-08-19T05:16:47;100527.13;;;18.18;95.06
38054;BME280;23859;50.672;7.164;2022-08-19T05:19:13;100527.81;;;18.20;94.83
38054;BME280;23859;50.672;7.164;2022-08-19T05:21:58;100525.22;;;18.26;94.21
38054;BME280;23859;50.672;7.164;2022-08-19T05:24:44;100525.69;;;18.30;94.60
38054;BME280;23859;50.672;7.164;2022-08-19T05:27:10;100529.28;;;18.37;93.37
38054;BME280;23859;50.672;7.164;2022-08-19T05:29:36;100535.56;;;18.44;93.03
38054;BME280;23859;50.672;7.164;2022-08-19T05:32:03;100543.91;;;18.49;92.80
38054;BME280;23859;50.672;7.164;2022-08-19T05:34:31;100537.44;;;18.58;92.72
38054;BME280;23859;50.672;7.164;2022-08-19T05:36:59;100538.78;;;18.68;92.53
38054;BME280;23859;50.672;7.164;2022-08-19T05:39:28;100534.97;;;18.77;92.22
38054;BME280;23859;50.672;7.164;2022-08-19T05:42:00;100532.59;;;18.88;91.56
38054;BME280;23859;50.672;7.164;2022-08-19T05:44:28;100537.22;;;18.94;91.65
38054;BME280;23859;50.672;7.164;2022-08-19T05:46:57;100445.97;;;18.29;91.25
38054;BME280;23859;50.672;7.164;2022-08-19T05:49:24;100548.06;;;19.01;91.74
38054;BME280;23859;50.672;7.164;2022-08-19T05:51:51;100544.81;;;19.05;91.34
38054;BME280;23859;50.672;7.164;2022-08-19T05:54:18;100546.16;;;19.16;90.92
38054;BME280;23859;50.672;7.164;2022-08-19T05:56:45;100535.47;;;19.22;91.33
38054;BME280;23859;50.672;7.164;2022-08-19T05:59:14;100534.69;;;19.28;91.06
38054;BME280;23859;50.672;7.164;2022-08-19T06:01:43;100538.03;;;19.30;90.73
38054;BME280;23859;50.672;7.164;2022-08-19T06:04:10;100533.28;;;19.32;90.74
38054;BME280;23859;50.672;7.164;2022-08-19T06:06:37;100544.31;;;19.37;90.43
38054;BME280;23859;50.672;7.164;2022-08-19T06:09:04;100548.84;;;19.37;90.70
38054;BME280;23859;50.672;7.164;2022-08-19T06:11:42;100540.34;;;19.33;90.89
38054;BME280;23859;50.672;7.164;2022-08-19T06:14:11;100557.34;;;19.34;91.08
38054;BME280;23859;50.672;7.164;2022-08-19T06:16:40;100548.28;;;19.41;90.36
38054;BME280;23859;50.672;7.164;2022-08-19T06:19:10;100546.03;;;19.44;89.72
38054;BME280;23859;50.672;7.164;2022-08-19T06:21:39;100537.88;;;19.59;89.53
38054;BME280;23859;50.672;7.164;2022-08-19T06:24:07;100535.25;;;19.72;89.25
38054;BME280;23859;50.672;7.164;2022-08-19T06:26:37;100534.84;;;19.96;88.51
38054;BME280;23859;50.672;7.164;2022-08-19T06:29:05;100531.13;;;19.97;88.65
38054;BME280;23859;50.672;7.164;2022-08-19T06:31:33;100487.78;;;19.77;88.74
38054;BME280;23859;50.672;7.164;2022-08-19T06:34:01;100543.88;;;20.15;88.91
38054;BME280;23859;50.672;7.164;2022-08-19T06:36:33;100549.16;;;20.23;88.97
38054;BME280;23859;50.672;7.164;2022-08-19T06:39:02;100555.81;;;20.34;88.03
38054;BME280;23859;50.672;7.164;2022-08-19T06:41:30;100556.69;;;20.75;85.73
38054;BME280;23859;50.672;7.164;2022-08-19T06:43:57;100543.41;;;20.86;84.92
38054;BME280;23859;50.672;7.164;2022-08-19T06:46:23;100549.28;;;21.02;83.96
38054;BME280;23859;50.672;7.164;2022-08-19T06:48:49;100550.94;;;21.03;84.07
38054;BME280;23859;50.672;7.164;2022-08-19T06:51:17;100549.69;;;20.99;85.06
38054;BME280;23859;50.672;7.164;2022-08-19T06:53:47;100555.19;;;21.32;84.06
38054;BME280;23859;50.672;7.164;2022-08-19T06:56:21;100554.16;;;21.52;82.84
38054;BME280;23859;50.672;7.164;2022-08-19T06:58:47;100557.88;;;21.96;80.80
38054;BME280;23859;50.672;7.164;2022-08-19T07:01:19;100562.22;;;22.16;79.34
38054;BME280;23859;50.672;7.164;2022-08-19T07:03:46;100565.78;;;22.23;79.13
38054;BME280;23859;50.672;7.164;2022-08-19T07:06:14;100562.22;;;22.36;77.68
38054;BME280;23859;50.672;7.164;2022-08-19T07:08:44;100561.09;;;22.63;76.95
38054;BME280;23859;50.672;7.164;2022-08-19T07:11:12;100552.66;;;22.83;75.69
38054;BME280;23859;50.672;7.164;2022-08-19T07:13:40;100555.41;;;22.77;74.47
38054;BME280;23859;50.672;7.164;2022-08-19T07:16:11;100570.13;;;22.87;74.54
38054;BME280;23859;50.672;7.164;2022-08-19T07:18:38;100573.13;;;22.79;75.96
38054;BME280;23859;50.672;7.164;2022-08-19T07:21:06;100572.72;;;22.76;74.75
38054;BME280;23859;50.672;7.164;2022-08-19T07:23:33;100577.06;;;23.27;73.46
38054;BME280;23859;50.672;7.164;2022-08-19T07:26:09;100579.16;;;23.25;73.07
38054;BME280;23859;50.672;7.164;2022-08-19T07:28:36;100578.75;;;23.52;71.70
38054;BME280;23859;50.672;7.164;2022-08-19T07:31:06;100577.81;;;23.65;70.97
38054;BME280;23859;50.672;7.164;2022-08-19T07:33:32;100578.94;;;24.30;68.53
38054;BME280;23859;50.672;7.164;2022-08-19T07:35:59;100584.66;;;23.98;68.83
38054;BME280;23859;50.672;7.164;2022-08-19T07:38:25;100587.66;;;23.59;70.75
38054;BME280;23859;50.672;7.164;2022-08-19T07:40:51;100576.06;;;24.43;68.35
38054;BME280;23859;50.672;7.164;2022-08-19T07:43:18;100581.91;;;24.47;67.67
38054;BME280;23859;50.672;7.164;2022-08-19T07:45:46;100575.63;;;24.64;67.10
38054;BME280;23859;50.672;7.164;2022-08-19T07:48:13;100579.81;;;25.54;64.43
38054;BME280;23859;50.672;7.164;2022-08-19T07:50:40;100575.78;;;26.09;61.58
38054;BME280;23859;50.672;7.164;2022-08-19T07:53:06;100577.84;;;26.36;60.71
38054;BME280;23859;50.672;7.164;2022-08-19T07:55:32;100572.53;;;27.20;58.40
38054;BME280;23859;50.672;7.164;2022-08-19T07:57:59;100569.69;;;28.41;54.60
38054;BME280;23859;50.672;7.164;2022-08-19T08:00:26;100576.34;;;29.30;51.76
38054;BME280;23859;50.672;7.164;2022-08-19T08:02:52;100572.84;;;29.61;50.21
38054;BME280;23859;50.672;7.164;2022-08-19T08:05:18;100582.03;;;28.06;52.71
38054;BME280;23859;50.672;7.164;2022-08-19T08:08:03;100580.34;;;28.37;52.98
38054;BME280;23859;50.672;7.164;2022-08-19T08:10:48;100589.88;;;27.69;54.88
38054;BME280;23859;50.672;7.164;2022-08-19T08:13:14;100590.97;;;28.34;53.10
38054;BME280;23859;50.672;7.164;2022-08-19T08:15:40;100591.78;;;27.85;53.94
38054;BME280;23859;50.672;7.164;2022-08-19T08:18:06;100577.19;;;27.63;54.88
38054;BME280;23859;50.672;7.164;2022-08-19T08:20:32;100534.78;;;26.78;56.45
38054;BME280;23859;50.672;7.164;2022-08-19T08:22:59;100589.16;;;27.18;56.05
38054;BME280;23859;50.672;7.164;2022-08-19T08:25:43;100586.81;;;27.10;56.74
38054;BME280;23859;50.672;7.164;2022-08-19T08:28:09;100590.66;;;26.98;57.20
38054;BME280;23859;50.672;7.164;2022-08-19T08:30:36;100595.88;;;26.88;57.53
38054;BME280;23859;50.672;7.164;2022-08-19T08:33:03;100589.53;;;26.60;57.65
38054;BME280;23859;50.672;7.164;2022-08-19T08:35:29;100589.53;;;26.14;59.10
38054;BME280;23859;50.672;7.164;2022-08-19T08:37:56;100583.88;;;26.50;58.57
38054;BME280;23859;50.672;7.164;2022-08-19T08:40:33;100587.75;;;25.97;59.29
38054;BME280;23859;50.672;7.164;2022-08-19T08:43:23;100589.88;;;25.95;60.16
38054;BME280;23859;50.672;7.164;2022-08-19T08:46:17;100589.06;;;26.28;58.47
38054;BME280;23859;50.672;7.164;2022-08-19T08:48:51;100594.44;;;27.08;56.88
38054;BME280;23859;50.672;7.164;2022-08-19T08:51:52;100598.16;;;27.91;55.00
38054;BME280;23859;50.672;7.164;2022-08-19T08:54:23;100588.91;;;28.62;51.98
38054;BME280;23859;50.672;7.164;2022-08-19T08:56:53;100588.50;;;27.56;53.91
38054;BME280;23859;50.672;7.164;2022-08-19T08:59:33;100587.78;;;28.09;53.93
38054;BME280;23859;50.672;7.164;2022-08-19T09:02:00;100595.91;;;27.71;53.61
38054;BME280;23859;50.672;7.164;2022-08-19T09:04:27;100601.06;;;27.68;53.99
38054;BME280;23859;50.672;7.164;2022-08-19T09:07:23;100596.00;;;26.93;55.48
38054;BME280;23859;50.672;7.164;2022-08-19T09:09:55;100597.16;;;27.08;55.03
38054;BME280;23859;50.672;7.164;2022-08-19T09:15:07;100587.84;;;26.82;55.60
38054;BME280;23859;50.672;7.164;2022-08-19T09:17:35;100586.38;;;26.90;55.74
38054;BME280;23859;50.672;7.164;2022-08-19T09:22:41;100586.22;;;26.69;56.84
38054;BME280;23859;50.672;7.164;2022-08-19T09:25:10;100579.72;;;26.24;57.98
38054;BME280;23859;50.672;7.164;2022-08-19T09:27:39;100590.25;;;26.21;58.36
38054;BME280;23859;50.672;7.164;2022-08-19T09:30:07;100581.84;;;26.34;57.92
38054;BME280;23859;50.672;7.164;2022-08-19T09:32:34;100578.78;;;26.42;57.63
38054;BME280;23859;50.672;7.164;2022-08-19T09:35:01;100575.31;;;26.58;56.74
38054;BME280;23859;50.672;7.164;2022-08-19T09:37:27;100584.88;;;26.83;56.52
38054;BME280;23859;50.672;7.164;2022-08-19T09:39:53;100582.94;;;26.95;54.89
38054;BME280;23859;50.672;7.164;2022-08-19T09:42:20;100585.56;;;26.79;56.02
38054;BME280;23859;50.672;7.164;2022-08-19T09:44:46;100576.47;;;27.12;54.88
38054;BME280;23859;50.672;7.164;2022-08-19T09:47:13;100577.81;;;27.10;54.47
38054;BME280;23859;50.672;7.164;2022-08-19T09:49:40;100581.75;;;27.30;55.00
38054;BME280;23859;50.672;7.164;2022-08-19T09:52:09;100587.50;;;27.45;54.36
38054;BME280;23859;50.672;7.164;2022-08-19T09:54:36;100582.03;;;27.73;53.56
38054;BME280;23859;50.672;7.164;2022-08-19T09:57:03;100589.69;;;27.32;53.57
38054;BME280;23859;50.672;7.164;2022-08-19T09:59:30;100579.91;;;27.19;53.94
38054;BME280;23859;50.672;7.164;2022-08-19T10:01:56;100577.13;;;27.47;52.45
38054;BME280;23859;50.672;7.164;2022-08-19T10:04:22;100579.69;;;27.65;53.02
38054;BME280;23859;50.672;7.164;2022-08-19T10:06:49;100589.47;;;27.61;52.84
38054;BME280;23859;50.672;7.164;2022-08-19T10:09:17;100582.41;;;27.37;53.27
38054;BME280;23859;50.672;7.164;2022-08-19T10:11:44;100576.38;;;27.35;52.69
38054;BME280;23859;50.672;7.164;2022-08-19T10:14:15;100578.28;;;27.62;51.87
38054;BME280;23859;50.672;7.164;2022-08-19T10:16:43;100580.97;;;27.46;52.40
38054;BME280;23859;50.672;7.164;2022-08-19T10:19:09;100574.56;;;27.41;52.08
38054;BME280;23859;50.672;7.164;2022-08-19T10:21:35;100580.75;;;27.64;52.26
38054;BME280;23859;50.672;7.164;2022-08-19T10:24:04;100571.56;;;27.70;51.17
38054;BME280;23859;50.672;7.164;2022-08-19T10:26:33;100572.84;;;27.51;52.39
38054;BME280;23859;50.672;7.164;2022-08-19T10:29:01;100576.38;;;27.63;51.89
38054;BME280;23859;50.672;7.164;2022-08-19T10:31:31;100560.31;;;27.83;51.39
38054;BME280;23859;50.672;7.164;2022-08-19T10:33:58;100554.78;;;26.94;53.57
38054;BME280;23859;50.672;7.164;2022-08-19T10:36:31;100557.16;;;26.91;53.88
38054;BME280;23859;50.672;7.164;2022-08-19T10:39:00;100563.59;;;27.52;52.49
38054;BME280;23859;50.672;7.164;2022-08-19T10:41:32;100559.25;;;27.40;51.70
38054;BME280;23859;50.672;7.164;2022-08-19T10:44:02;100556.84;;;27.27;52.23
38054;BME280;23859;50.672;7.164;2022-08-19T10:46:29;100553.44;;;26.81;54.01
38054;BME280;23859;50.672;7.164;2022-08-19T10:48:59;100554.44;;;27.02;53.00
38054;BME280;23859;50.672;7.164;2022-08-19T10:51:25;100560.59;;;27.54;53.07
38054;BME280;23859;50.672;7.164;2022-08-19T10:54:10;100557.81;;;27.65;51.75
38054;BME280;23859;50.672;7.164;2022-08-19T10:56:36;100557.13;;;27.58;50.94
38054;BME280;23859;50.672;7.164;2022-08-19T10:59:28;100553.09;;;27.93;49.61
38054;BME280;23859;50.672;7.164;2022-08-19T11:01:59;100548.38;;;27.89;49.92
38054;BME280;23859;50.672;7.164;2022-08-19T11:04:26;100544.97;;;27.98;49.51
38054;BME280;23859;50.672;7.164;2022-08-19T11:06:52;100542.56;;;28.02;49.63
38054;BME280;23859;50.672;7.164;2022-08-19T11:09:21;100534.44;;;27.74;49.87
38054;BME280;23859;50.672;7.164;2022-08-19T11:11:50;100546.44;;;27.57;50.34
38054;BME280;23859;50.672;7.164;2022-08-19T11:14:19;100533.69;;;27.01;51.95
38054;BME280;23859;50.672;7.164;2022-08-19T11:16:48;100528.13;;;27.24;51.47
38054;BME280;23859;50.672;7.164;2022-08-19T11:19:16;100530.38;;;28.47;49.58
38054;BME280;23859;50.672;7.164;2022-08-19T11:21:46;100522.69;;;29.61;46.01
38054;BME280;23859;50.672;7.164;2022-08-19T11:24:18;100519.09;;;30.94;42.14
38054;BME280;23859;50.672;7.164;2022-08-19T11:26:47;100535.72;;;30.57;42.61
38054;BME280;23859;50.672;7.164;2022-08-19T11:29:17;100533.09;;;29.64;44.49
38054;BME280;23859;50.672;7.164;2022-08-19T11:31:46;100528.34;;;29.85;44.49
38054;BME280;23859;50.672;7.164;2022-08-19T11:34:21;100433.00;;;29.30;42.20
38054;BME280;23859;50.672;7.164;2022-08-19T11:36:49;100527.97;;;30.03;42.67
38054;BME280;23859;50.672;7.164;2022-08-19T11:39:18;100511.63;;;29.87;43.04
38054;BME280;23859;50.672;7.164;2022-08-19T11:41:45;100520.56;;;29.72;42.99
38054;BME280;23859;50.672;7.164;2022-08-19T11:44:11;100518.38;;;29.74;43.47
38054;BME280;23859;50.672;7.164;2022-08-19T11:46:40;100514.25;;;29.14;43.69
38054;BME280;23859;50.672;7.164;2022-08-19T11:49:07;100518.69;;;28.94;44.86
38054;BME280;23859;50.672;7.164;2022-08-19T11:51:35;100513.63;;;29.91;43.31
38054;BME280;23859;50.672;7.164;2022-08-19T11:54:03;100509.28;;;31.22;40.00
38054;BME280;23859;50.672;7.164;2022-08-19T11:56:29;100520.91;;;31.69;39.25
38054;BME280;23859;50.672;7.164;2022-08-19T11:58:56;100520.09;;;31.88;38.93
38054;BME280;23859;50.672;7.164;2022-08-19T12:01:24;100520.91;;;31.89;38.57
38054;BME280;23859;50.672;7.164;2022-08-19T12:03:52;100525.19;;;31.01;40.10
38054;BME280;23859;50.672;7.164;2022-08-19T12:06:25;100528.94;;;30.80;39.27
38054;BME280;23859;50.672;7.164;2022-08-19T12:08:56;100513.34;;;30.39;40.34
38054;BME280;23859;50.672;7.164;2022-08-19T12:11:23;100515.22;;;29.30;42.51
38054;BME280;23859;50.672;7.164;2022-08-19T12:13:50;100519.69;;;29.36;43.04
38054;BME280;23859;50.672;7.164;2022-08-19T12:16:19;100523.81;;;29.38;43.82
38054;BME280;23859;50.672;7.164;2022-08-19T12:18:45;100511.88;;;29.23;42.89
38054;BME280;23859;50.672;7.164;2022-08-19T12:21:16;100514.56;;;29.18;43.26
38054;BME280;23859;50.672;7.164;2022-08-19T12:23:43;100513.28;;;29.25;43.15
38054;BME280;23859;50.672;7.164;2022-08-19T12:26:11;100513.38;;;29.09;44.04
38054;BME280;23859;50.672;7.164;2022-08-19T12:28:38;100510.22;;;29.22;43.92
38054;BME280;23859;50.672;7.164;2022-08-19T12:31:04;100509.13;;;29.23;44.17
38054;BME280;23859;50.672;7.164;2022-08-19T12:33:30;100500.03;;;29.17;43.92
38054;BME280;23859;50.672;7.164;2022-08-19T12:36:04;100507.47;;;29.22;44.23
38054;BME280;23859;50.672;7.164;2022-08-19T12:38:31;100502.72;;;29.12;44.44
38054;BME280;23859;50.672;7.164;2022-08-19T12:40:58;100513.53;;;28.76;44.21
38054;BME280;23859;50.672;7.164;2022-08-19T12:43:24;100493.72;;;28.69;44.56
38054;BME280;23859;50.672;7.164;2022-08-19T12:45:50;100493.78;;;28.74;43.73
38054;BME280;23859;50.672;7.164;2022-08-19T12:48:16;100490.88;;;28.59;44.45
38054;BME280;23859;50.672;7.164;2022-08-19T12:50:44;100485.56;;;28.74;44.80
38054;BME280;23859;50.672;7.164;2022-08-19T12:53:13;100488.88;;;28.98;44.58
38054;BME280;23859;50.672;7.164;2022-08-19T12:55:40;100482.97;;;28.84;44.12
38054;BME280;23859;50.672;7.164;2022-08-19T12:58:06;100479.75;;;28.92;44.88
38054;BME280;23859;50.672;7.164;2022-08-19T13:00:32;100484.22;;;28.98;44.51
38054;BME280;23859;50.672;7.164;2022-08-19T13:02:59;100489.13;;;28.75;45.22
38054;BME280;23859;50.672;7.164;2022-08-19T13:05:28;100485.53;;;28.69;45.06
38054;BME280;23859;50.672;7.164;2022-08-19T13:07:56;100492.97;;;28.31;45.37
38054;BME280;23859;50.672;7.164;2022-08-19T13:10:26;100486.53;;;28.63;45.71